DXXX/LFW METAR and TAF weather

Enter ICAO airport designator
Station Type Date Time Source
DXXX METAR 2018/09/21 23:00 UTC NOAA

DXXX 212300Z 22008KT 9999 FEW012 27/25 Q1012 NOSIG


Station Type Date Time Source
DXXX Decoded METAR 2018/09/21 23:00 UTC NOAA

Lome, Togo (DXXX) 06-10N 001-15E 25M
Sep 21, 2018 - 07:00 PM EDT / 2018.09.21 2300 UTC
Wind: from the SW (220 degrees) at 9 MPH (8 KT):0
Visibility: greater than 7 mile(s):0
Sky conditions: mostly clear
Temperature: 80 F (27 C)
Dew Point: 77 F (25 C)
Relative Humidity: 88%
Pressure (altimeter): 29.88 in. Hg (1012 hPa)
ob: DXXX 212300Z 22008KT 9999 FEW012 27/25 Q1012 NOSIG
cycle: 23

Station Type Date Time Source
DXXX TAF 2018/09/21 06:42 UTC NOAA

TAF DXXX 210500Z 2106/2212 26005KT 9999 TS BKN011 FEW020CB
BECMG 2108/2110 20010KT NSW SCT012
TEMPO 2113/2120 TS BKN013 FEW020CB PROB40 4000 TSRA
BECMG 2122/2124 26005KT


Example: see airport list